createdAt,value
2023-02-09T00:00:22.036Z,72.92
2023-02-09T00:01:22.027Z,73.03
2023-02-09T00:02:22.122Z,73.24
2023-02-09T00:03:22.054Z,73.45
2023-02-09T00:04:22.007Z,73.66
2023-02-09T00:05:21.989Z,73.76
2023-02-09T00:06:21.991Z,74.01
2023-02-09T00:07:22.002Z,74.22
2023-02-09T00:08:21.968Z,74.54
2023-02-09T00:09:21.949Z,74.85
2023-02-09T00:10:21.944Z,75.10
2023-02-09T00:11:21.943Z,75.31
2023-02-09T00:12:21.925Z,75.52
2023-02-09T00:13:21.947Z,75.73
2023-02-09T00:14:22.358Z,75.84
2023-02-09T00:15:21.885Z,75.94
2023-02-09T00:16:21.929Z,76.04
2023-02-09T00:17:21.879Z,76.15
2023-02-09T00:18:21.899Z,76.15
2023-02-09T00:19:21.931Z,75.94
2023-02-09T00:20:21.882Z,75.62
2023-02-09T00:21:21.839Z,74.99
2023-02-09T00:22:21.828Z,74.57
2023-02-09T00:23:21.822Z,74.36
2023-02-09T00:24:21.827Z,74.22
2023-02-09T00:25:21.828Z,74.32
2023-02-09T00:26:21.796Z,74.36
2023-02-09T00:27:21.785Z,74.57
2023-02-09T00:28:21.805Z,74.68
2023-02-09T00:29:21.759Z,74.68
2023-02-09T00:30:21.751Z,74.99
2023-02-09T00:31:21.974Z,75.42
2023-02-09T00:32:21.734Z,75.73
2023-02-09T00:33:21.722Z,75.84
2023-02-09T00:34:21.715Z,75.73
2023-02-09T00:35:21.700Z,75.87
2023-02-09T00:36:21.706Z,75.94
2023-02-09T00:37:21.697Z,76.08
2023-02-09T00:38:21.675Z,76.29
2023-02-09T00:39:21.667Z,76.18
2023-02-09T00:40:21.663Z,75.87
2023-02-09T00:41:21.643Z,76.08
2023-02-09T00:42:21.638Z,76.29
2023-02-09T00:43:21.659Z,76.29
2023-02-09T00:44:21.634Z,76.18
2023-02-09T00:45:21.609Z,76.08
2023-02-09T00:46:21.601Z,75.98
2023-02-09T00:47:21.604Z,75.76
2023-02-09T00:48:21.598Z,75.66
2023-02-09T00:49:21.606Z,75.52
2023-02-09T00:50:21.567Z,75.42
2023-02-09T00:51:21.546Z,75.42
2023-02-09T00:52:21.558Z,75.31
2023-02-09T00:53:21.554Z,75.31
2023-02-09T00:54:21.533Z,75.31
2023-02-09T00:55:21.551Z,75.31
2023-02-09T00:56:21.510Z,75.45
2023-02-09T00:57:21.498Z,75.55
2023-02-09T00:58:21.485Z,75.87
2023-02-09T00:59:21.477Z,76.40
2023-02-09T01:00:21.472Z,76.92
2023-02-09T01:01:21.590Z,77.17
2023-02-09T01:02:21.470Z,77.48
2023-02-09T01:03:21.435Z,77.70
2023-02-09T01:04:21.448Z,77.80
2023-02-09T01:05:21.423Z,77.80
2023-02-09T01:06:21.412Z,77.70
2023-02-09T01:07:21.432Z,77.70
2023-02-09T01:08:21.393Z,77.80
2023-02-09T01:09:21.384Z,77.80
2023-02-09T01:10:21.404Z,78.02
2023-02-09T01:11:21.361Z,78.12
2023-02-09T01:12:21.359Z,78.26
2023-02-09T01:13:21.390Z,78.26
2023-02-09T01:14:21.349Z,78.26
2023-02-09T01:15:21.333Z,78.26
2023-02-09T01:16:21.374Z,78.47
2023-02-09T01:17:21.308Z,78.58
2023-02-09T01:18:21.313Z,78.58
2023-02-09T01:19:21.330Z,78.58
2023-02-09T01:20:21.281Z,78.58
2023-02-09T01:21:21.269Z,78.37
2023-02-09T01:22:21.261Z,78.16
2023-02-09T01:23:21.247Z,78.37
2023-02-09T01:24:21.246Z,78.72
2023-02-09T01:25:21.264Z,78.83
2023-02-09T01:26:21.238Z,78.83
2023-02-09T01:27:21.210Z,78.68
2023-02-09T01:28:21.297Z,78.61
2023-02-09T01:29:21.195Z,78.58
2023-02-09T01:30:21.187Z,78.37
2023-02-09T01:31:21.363Z,78.16
2023-02-09T01:32:21.171Z,77.84
2023-02-09T01:33:21.160Z,77.73
2023-02-09T01:34:21.152Z,77.73
2023-02-09T01:35:21.134Z,77.52
2023-02-09T01:36:21.130Z,77.42
2023-02-09T01:37:21.139Z,77.52
2023-02-09T01:38:21.112Z,77.84
2023-02-09T01:39:21.105Z,78.08
2023-02-09T01:40:21.092Z,78.40
2023-02-09T01:41:21.084Z,78.61
2023-02-09T01:42:21.083Z,78.72
2023-02-09T01:43:21.116Z,78.51
2023-02-09T01:44:21.057Z,78.40
2023-02-09T01:45:21.044Z,78.19
2023-02-09T01:46:21.136Z,77.77
2023-02-09T01:47:21.022Z,77.66
2023-02-09T01:48:21.029Z,77.66
2023-02-09T01:49:21.033Z,77.77
2023-02-09T01:50:21.003Z,78.08
2023-02-09T01:51:20.991Z,78.30
2023-02-09T01:52:20.983Z,78.51
2023-02-09T01:53:20.975Z,78.40
2023-02-09T01:54:20.962Z,78.30
2023-02-09T01:55:20.976Z,78.30
2023-02-09T01:56:20.942Z,78.30
2023-02-09T01:57:20.932Z,78.19
2023-02-09T01:58:20.922Z,78.19
2023-02-09T01:59:20.907Z,77.98
2023-02-09T02:00:20.965Z,77.87
2023-02-09T02:01:20.955Z,77.77
2023-02-09T02:02:20.920Z,77.87
2023-02-09T02:03:20.877Z,78.19
2023-02-09T02:04:20.872Z,78.30
2023-02-09T02:05:20.854Z,78.30
2023-02-09T02:06:20.849Z,78.30
2023-02-09T02:07:20.866Z,78.40
2023-02-09T02:08:20.828Z,78.40
2023-02-09T02:09:20.812Z,78.30
2023-02-09T02:10:20.820Z,78.08
2023-02-09T02:11:20.798Z,77.98
2023-02-09T02:12:20.793Z,77.87
2023-02-09T02:13:20.800Z,77.77
2023-02-09T02:14:20.777Z,77.87
2023-02-09T02:15:20.756Z,77.66
2023-02-09T02:16:20.760Z,77.56
2023-02-09T02:17:20.748Z,77.10
2023-02-09T02:18:20.788Z,77.00
2023-02-09T02:19:20.754Z,76.78
2023-02-09T02:20:20.710Z,76.89
2023-02-09T02:21:20.706Z,76.78
2023-02-09T02:22:20.691Z,76.57
2023-02-09T02:23:20.700Z,76.36
2023-02-09T02:24:20.673Z,76.25
2023-02-09T02:25:20.694Z,76.04
2023-02-09T02:26:20.651Z,75.73
2023-02-09T02:27:20.635Z,75.41
2023-02-09T02:28:20.717Z,75.41
2023-02-09T02:29:20.623Z,75.09
2023-02-09T02:30:20.656Z,75.37
2023-02-09T02:31:20.732Z,75.73
2023-02-09T02:32:20.601Z,75.62
2023-02-09T02:33:20.609Z,75.73
2023-02-09T02:34:20.571Z,75.83
2023-02-09T02:35:20.562Z,75.94
2023-02-09T02:36:20.585Z,76.04
2023-02-09T02:37:20.539Z,76.15
2023-02-09T02:38:20.520Z,75.94
2023-02-09T02:39:20.521Z,76.04
2023-02-09T02:40:20.507Z,75.94
2023-02-09T02:41:20.496Z,75.94
2023-02-09T02:42:20.888Z,76.04
2023-02-09T02:43:20.478Z,75.83
2023-02-09T02:44:20.477Z,75.94
2023-02-09T02:45:20.470Z,76.29
2023-02-09T02:46:20.549Z,76.29
2023-02-09T02:47:20.441Z,76.18
2023-02-09T02:48:20.472Z,76.29
2023-02-09T02:49:20.426Z,76.08
2023-02-09T02:50:20.465Z,75.87
2023-02-09T02:51:20.410Z,75.97
2023-02-09T02:52:20.410Z,76.08
2023-02-09T02:53:20.398Z,75.97
2023-02-09T02:54:20.426Z,76.18
2023-02-09T02:55:20.369Z,76.32
2023-02-09T02:56:20.364Z,76.29
2023-02-09T02:57:20.357Z,76.21
2023-02-09T02:58:20.346Z,76.53
2023-02-09T02:59:20.334Z,76.85
2023-02-09T03:00:20.361Z,76.64
2023-02-09T03:01:20.396Z,76.32
2023-02-09T03:02:20.321Z,76.53
2023-02-09T03:03:20.301Z,76.53
2023-02-09T03:04:20.293Z,76.21
2023-02-09T03:05:20.301Z,76.32
2023-02-09T03:06:20.317Z,76.75
2023-02-09T03:07:20.278Z,77.17
2023-02-09T03:08:20.250Z,77.59
2023-02-09T03:09:20.240Z,78.05
2023-02-09T03:10:20.245Z,78.47
2023-02-09T03:11:20.248Z,78.79
2023-02-09T03:12:20.258Z,79.21
2023-02-09T03:13:20.205Z,79.57
2023-02-09T03:14:20.203Z,79.78
2023-02-09T03:15:20.192Z,79.78
2023-02-09T03:16:20.226Z,79.99
2023-02-09T03:17:20.167Z,80.30
2023-02-09T03:18:20.219Z,80.10
2023-02-09T03:19:20.150Z,80.24
2023-02-09T03:20:20.139Z,80.34
2023-02-09T03:21:20.129Z,80.24
2023-02-09T03:22:20.127Z,80.20
2023-02-09T03:23:20.110Z,80.24
2023-02-09T03:24:20.121Z,80.45
2023-02-09T03:25:20.092Z,80.55
2023-02-09T03:26:20.086Z,80.77
2023-02-09T03:27:20.104Z,80.87
2023-02-09T03:28:20.137Z,80.98
2023-02-09T03:29:20.056Z,81.09
2023-02-09T03:30:20.042Z,81.19
2023-02-09T03:31:20.152Z,81.23
2023-02-09T03:32:20.028Z,81.19
2023-02-09T03:33:20.045Z,81.34
2023-02-09T03:34:20.007Z,81.44
2023-02-09T03:35:20.015Z,81.44
2023-02-09T03:36:19.997Z,81.34
2023-02-09T03:37:19.981Z,81.23
2023-02-09T03:38:19.979Z,81.34
2023-02-09T03:39:19.984Z,81.34
2023-02-09T03:40:19.961Z,81.34
2023-02-09T03:41:19.943Z,81.34
2023-02-09T03:42:19.937Z,81.23
2023-02-09T03:43:19.932Z,81.23
2023-02-09T03:44:20.332Z,81.34
2023-02-09T03:45:19.902Z,81.54
2023-02-09T03:46:19.927Z,81.65
2023-02-09T03:47:19.888Z,81.65
2023-02-09T03:48:19.882Z,81.76
2023-02-09T03:49:19.869Z,81.76
2023-02-09T03:50:19.891Z,81.76
2023-02-09T03:51:19.843Z,81.86
2023-02-09T03:52:19.848Z,81.86
2023-02-09T03:53:19.829Z,81.86
2023-02-09T03:54:19.828Z,81.86
2023-02-09T03:55:19.809Z,81.86
2023-02-09T03:56:19.832Z,81.65
2023-02-09T03:57:19.795Z,81.65
2023-02-09T03:58:19.787Z,81.44
2023-02-09T03:59:19.786Z,81.44
2023-02-09T04:00:19.770Z,81.44
2023-02-09T04:01:19.777Z,81.54
2023-02-09T04:02:19.795Z,81.34
2023-02-09T04:03:19.734Z,81.23
2023-02-09T04:04:19.728Z,81.23
2023-02-09T04:05:19.715Z,81.23
2023-02-09T04:06:19.711Z,81.12
2023-02-09T04:07:19.714Z,81.12
2023-02-09T04:08:19.690Z,81.23
2023-02-09T04:09:19.687Z,81.34
2023-02-09T04:10:19.671Z,81.44
2023-02-09T04:11:19.666Z,81.54
2023-02-09T04:12:19.648Z,81.79
2023-02-09T04:13:19.672Z,82.01
2023-02-09T04:14:19.632Z,82.11
2023-02-09T04:15:19.620Z,82.32
2023-02-09T04:16:19.640Z,82.53
2023-02-09T04:17:19.623Z,82.89
2023-02-09T04:18:19.589Z,83.21
2023-02-09T04:19:19.628Z,83.21
2023-02-09T04:20:19.577Z,83.31
2023-02-09T04:21:19.566Z,83.31
2023-02-09T04:22:19.575Z,83.31
2023-02-09T04:23:21.102Z,83.10
2023-02-09T04:24:19.538Z,82.78
2023-02-09T04:25:19.554Z,82.57
2023-02-09T04:26:19.521Z,82.43
2023-02-09T04:27:19.508Z,82.21
2023-02-09T04:28:19.564Z,82.11
2023-02-09T04:29:19.490Z,82.11
2023-02-09T04:30:19.511Z,81.79
2023-02-09T04:31:19.615Z,81.79
2023-02-09T04:32:19.460Z,81.79
2023-02-09T04:33:19.449Z,81.48
2023-02-09T04:34:19.438Z,81.37
2023-02-09T04:35:19.434Z,81.44
2023-02-09T04:36:19.458Z,81.44
2023-02-09T04:37:19.432Z,81.34
2023-02-09T04:38:19.418Z,81.01
2023-02-09T04:39:19.392Z,80.91
2023-02-09T04:40:19.386Z,80.80
2023-02-09T04:41:19.378Z,80.59
2023-02-09T04:42:19.397Z,80.59
2023-02-09T04:43:19.356Z,80.59
2023-02-09T04:44:19.359Z,80.59
2023-02-09T04:45:19.339Z,80.59
2023-02-09T04:46:19.336Z,80.59
2023-02-09T04:47:19.337Z,80.91
2023-02-09T04:48:19.347Z,80.91
2023-02-09T04:49:19.298Z,81.12
2023-02-09T04:50:19.299Z,81.23
2023-02-09T04:51:19.285Z,81.23
2023-02-09T04:52:19.280Z,81.23
2023-02-09T04:53:19.290Z,81.23
2023-02-09T04:54:19.263Z,81.01
2023-02-09T04:55:19.249Z,80.98
2023-02-09T04:56:19.256Z,80.77
2023-02-09T04:57:19.243Z,80.45
2023-02-09T04:58:19.226Z,80.34
2023-02-09T04:59:19.235Z,80.24
2023-02-09T05:00:19.213Z,80.24
2023-02-09T05:01:19.258Z,79.28
2023-02-09T05:02:19.185Z,79.43
2023-02-09T05:03:19.250Z,79.71
2023-02-09T05:04:19.173Z,79.82
2023-02-09T05:05:19.174Z,79.18
2023-02-09T05:06:19.148Z,79.39
2023-02-09T05:07:19.133Z,79.11
2023-02-09T05:08:19.132Z,79.43
2023-02-09T05:09:19.116Z,80.06
2023-02-09T05:10:19.144Z,80.38
2023-02-09T05:11:19.104Z,80.59
2023-02-09T05:12:19.097Z,80.66
2023-02-09T05:13:19.075Z,80.55
2023-02-09T05:14:19.083Z,80.34
2023-02-09T05:15:19.065Z,79.92
2023-02-09T05:16:19.182Z,79.50
2023-02-09T05:17:19.055Z,79.18
2023-02-09T05:18:19.041Z,79.07
2023-02-09T05:19:19.029Z,78.97
2023-02-09T05:20:19.033Z,78.23
2023-02-09T05:21:19.020Z,78.12
2023-02-09T05:22:19.037Z,78.65
2023-02-09T05:23:18.997Z,78.86
2023-02-09T05:24:18.982Z,79.11
2023-02-09T05:25:18.973Z,79.53
2023-02-09T05:26:18.970Z,79.53
2023-02-09T05:27:18.964Z,79.43
2023-02-09T05:28:19.064Z,79.43
2023-02-09T05:29:20.435Z,79.43
2023-02-09T05:30:18.942Z,79.64
2023-02-09T05:31:19.074Z,79.96
2023-02-09T05:32:18.987Z,79.88
2023-02-09T05:33:18.947Z,80.10
2023-02-09T05:34:18.890Z,80.31
2023-02-09T05:35:18.876Z,80.52
2023-02-09T05:36:18.875Z,80.63
2023-02-09T05:37:18.865Z,80.73
2023-02-09T05:38:18.858Z,80.88
2023-02-09T05:39:18.866Z,80.77
2023-02-09T05:40:18.846Z,80.88
2023-02-09T05:41:18.831Z,80.88
2023-02-09T05:42:18.830Z,80.98
2023-02-09T05:43:18.816Z,81.41
2023-02-09T05:44:18.797Z,81.62
2023-02-09T05:45:18.801Z,81.73
2023-02-09T05:46:18.856Z,81.93
2023-02-09T05:47:18.783Z,82.15
2023-02-09T05:48:18.762Z,82.25
2023-02-09T05:49:18.753Z,82.15
2023-02-09T05:50:18.980Z,82.04
2023-02-09T05:51:18.731Z,81.69
2023-02-09T05:52:18.740Z,81.26
2023-02-09T05:53:18.709Z,80.41
2023-02-09T05:54:18.716Z,80.41
2023-02-09T05:55:18.692Z,80.63
2023-02-09T05:56:18.717Z,80.41
2023-02-09T05:57:18.674Z,80.52
2023-02-09T05:58:18.663Z,80.63
2023-02-09T05:59:18.662Z,80.41
2023-02-09T06:00:18.637Z,80.41
2023-02-09T06:01:18.636Z,80.41
2023-02-09T06:02:18.766Z,80.41
2023-02-09T06:03:18.642Z,79.88
2023-02-09T06:04:18.612Z,79.36
2023-02-09T06:05:18.588Z,79.25
2023-02-09T06:06:18.589Z,79.36
2023-02-09T06:07:18.567Z,79.88
2023-02-09T06:08:18.589Z,80.31
2023-02-09T06:09:18.553Z,80.41
2023-02-09T06:10:18.556Z,80.98
2023-02-09T06:11:18.527Z,81.20
2023-02-09T06:12:18.534Z,81.41
2023-02-09T06:13:18.545Z,81.41
2023-02-09T06:14:18.500Z,81.20
2023-02-09T06:15:18.493Z,80.98
2023-02-09T06:16:18.484Z,80.77
2023-02-09T06:17:18.470Z,80.56
2023-02-09T06:18:18.461Z,80.56
2023-02-09T06:19:18.484Z,80.66
2023-02-09T06:20:18.474Z,80.77
2023-02-09T06:21:18.426Z,80.45
2023-02-09T06:22:18.426Z,79.92
2023-02-09T06:23:18.408Z,79.60
2023-02-09T06:24:18.406Z,79.60
2023-02-09T06:25:18.414Z,79.71
2023-02-09T06:26:18.388Z,79.82
2023-02-09T06:27:18.369Z,79.71
2023-02-09T06:28:18.380Z,79.71
2023-02-09T06:29:18.353Z,79.60
2023-02-09T06:30:18.384Z,79.39
2023-02-09T06:31:18.463Z,79.39
2023-02-09T06:32:18.408Z,79.71
2023-02-09T06:33:18.318Z,79.92
2023-02-09T06:34:18.319Z,79.82
2023-02-09T06:35:18.301Z,79.82
2023-02-09T06:36:18.315Z,79.82
2023-02-09T06:37:18.283Z,79.92
2023-02-09T06:38:18.273Z,80.35
2023-02-09T06:39:18.260Z,79.60
2023-02-09T06:40:18.257Z,79.28
2023-02-09T06:41:18.255Z,79.07
2023-02-09T06:42:18.267Z,79.50
2023-02-09T06:43:18.223Z,80.13
2023-02-09T06:44:18.222Z,80.35
2023-02-09T06:45:18.206Z,80.45
2023-02-09T06:46:18.282Z,80.45
2023-02-09T06:47:18.184Z,80.03
2023-02-09T06:48:18.203Z,79.92
2023-02-09T06:49:18.169Z,79.71
2023-02-09T06:50:18.181Z,79.60
2023-02-09T06:51:18.154Z,78.86
2023-02-09T06:52:18.147Z,78.33
2023-02-09T06:53:18.373Z,78.33
2023-02-09T06:54:18.123Z,78.22
2023-02-09T06:55:18.108Z,78.12
2023-02-09T06:56:18.105Z,78.02
2023-02-09T06:57:18.092Z,78.02
2023-02-09T06:58:18.084Z,78.90
2023-02-09T06:59:18.108Z,80.07
2023-02-09T07:00:18.067Z,80.80
2023-02-09T07:01:18.138Z,81.23
2023-02-09T07:02:18.091Z,81.48
2023-02-09T07:03:18.042Z,81.80
2023-02-09T07:04:18.032Z,82.22
2023-02-09T07:05:18.038Z,82.43
2023-02-09T07:06:18.012Z,82.65
2023-02-09T07:07:18.001Z,82.86
2023-02-09T07:08:17.994Z,82.97
2023-02-09T07:09:17.994Z,83.07
2023-02-09T07:10:17.966Z,82.97
2023-02-09T07:11:17.980Z,82.97
2023-02-09T07:12:17.947Z,83.07
2023-02-09T07:13:17.947Z,82.97
2023-02-09T07:14:17.930Z,83.07
2023-02-09T07:15:17.931Z,82.86
2023-02-09T07:16:17.982Z,82.65
2023-02-09T07:17:17.904Z,82.54
2023-02-09T07:18:17.891Z,82.54
2023-02-09T07:19:17.897Z,82.65
2023-02-09T07:20:17.875Z,82.75
2023-02-09T07:21:17.868Z,82.86
2023-02-09T07:22:17.892Z,82.75
2023-02-09T07:23:17.845Z,82.54
2023-02-09T07:24:17.830Z,82.40
2023-02-09T07:25:17.832Z,82.29
2023-02-09T07:26:17.893Z,82.29
2023-02-09T07:27:17.810Z,82.40
2023-02-09T07:28:17.847Z,82.29
2023-02-09T07:29:17.813Z,82.29
2023-02-09T07:30:17.784Z,82.18
2023-02-09T07:31:17.927Z,81.97
2023-02-09T07:32:17.764Z,81.87
2023-02-09T07:33:17.785Z,81.97
2023-02-09T07:34:17.748Z,81.87
2023-02-09T07:35:17.732Z,81.97
2023-02-09T07:36:17.722Z,82.08
2023-02-09T07:37:17.715Z,82.04
2023-02-09T07:38:17.704Z,81.83
2023-02-09T07:39:17.743Z,81.73
2023-02-09T07:40:17.679Z,81.83
2023-02-09T07:41:17.676Z,81.93
2023-02-09T07:42:17.662Z,81.93
2023-02-09T07:43:17.659Z,82.04
2023-02-09T07:44:17.638Z,82.04
2023-02-09T07:45:18.050Z,81.79
2023-02-09T07:46:17.729Z,81.58
2023-02-09T07:47:17.617Z,81.48
2023-02-09T07:48:17.601Z,81.23
2023-02-09T07:49:17.594Z,81.01
2023-02-09T07:50:19.257Z,80.80
2023-02-09T07:51:17.601Z,80.49
2023-02-09T07:52:17.565Z,80.69
2023-02-09T07:53:17.565Z,81.01
2023-02-09T07:54:17.542Z,80.91
2023-02-09T07:55:17.539Z,80.91
2023-02-09T07:56:17.531Z,81.01
2023-02-09T07:57:17.548Z,81.12
2023-02-09T07:58:17.506Z,81.34
2023-02-09T07:59:17.505Z,81.30
2023-02-09T08:00:17.493Z,81.19
2023-02-09T08:01:17.488Z,81.09
2023-02-09T08:02:17.506Z,80.77
2023-02-09T08:03:17.501Z,80.55
2023-02-09T08:04:17.463Z,80.45
2023-02-09T08:05:17.476Z,80.30
2023-02-09T08:06:19.250Z,80.30
2023-02-09T08:07:17.431Z,80.20
2023-02-09T08:08:17.422Z,80.20
2023-02-09T08:09:17.457Z,80.20
2023-02-09T08:10:17.392Z,80.30
2023-02-09T08:11:17.388Z,80.41
2023-02-09T08:12:17.438Z,80.52
2023-02-09T08:13:17.371Z,80.62
2023-02-09T08:14:17.360Z,80.83
2023-02-09T08:15:17.367Z,80.94
2023-02-09T08:16:17.451Z,80.94
2023-02-09T08:17:17.342Z,80.94
2023-02-09T08:18:17.322Z,80.94
2023-02-09T08:19:17.318Z,80.69
2023-02-09T08:20:17.301Z,80.69
2023-02-09T08:21:17.347Z,80.80
2023-02-09T08:22:17.289Z,80.91
2023-02-09T08:23:17.320Z,81.12
2023-02-09T08:24:17.269Z,81.43
2023-02-09T08:25:17.270Z,81.58
2023-02-09T08:26:17.245Z,81.75
2023-02-09T08:27:17.254Z,81.85
2023-02-09T08:28:17.311Z,81.54
2023-02-09T08:29:17.247Z,81.43
2023-02-09T08:30:17.216Z,81.75
2023-02-09T08:31:17.561Z,81.85
2023-02-09T08:32:17.277Z,81.75
2023-02-09T08:33:17.185Z,81.33
2023-02-09T08:34:17.205Z,81.33
2023-02-09T08:35:17.169Z,81.43
2023-02-09T08:36:17.157Z,81.43
2023-02-09T08:37:17.153Z,81.65
2023-02-09T08:38:17.135Z,81.54
2023-02-09T08:39:17.129Z,81.61
2023-02-09T08:40:17.145Z,81.71
2023-02-09T08:41:17.134Z,81.50
2023-02-09T08:42:17.105Z,81.29
2023-02-09T08:43:17.090Z,80.94
2023-02-09T08:44:17.079Z,80.94
2023-02-09T08:45:17.070Z,80.83
2023-02-09T08:46:17.242Z,80.83
2023-02-09T08:47:17.064Z,80.73
2023-02-09T08:48:17.047Z,80.83
2023-02-09T08:49:17.042Z,80.94
2023-02-09T08:50:17.024Z,81.04
2023-02-09T08:51:17.029Z,80.62
2023-02-09T08:52:17.027Z,80.41
2023-02-09T08:53:17.006Z,80.30
2023-02-09T08:54:16.982Z,80.30
2023-02-09T08:55:16.980Z,79.85
2023-02-09T08:56:16.973Z,79.63
2023-02-09T08:57:17.028Z,79.53
2023-02-09T08:58:16.949Z,79.74
2023-02-09T08:59:19.723Z,79.53
2023-02-09T09:00:16.938Z,79.74
2023-02-09T09:01:17.011Z,79.85
2023-02-09T09:02:16.912Z,79.85
2023-02-09T09:03:16.957Z,79.95
2023-02-09T09:04:16.893Z,79.63
2023-02-09T09:05:16.889Z,79.81
2023-02-09T09:06:16.903Z,79.81
2023-02-09T09:07:16.878Z,79.81
2023-02-09T09:08:16.858Z,79.71
2023-02-09T09:09:16.871Z,79.81
2023-02-09T09:10:16.851Z,79.60
2023-02-09T09:11:16.830Z,79.03
2023-02-09T09:12:16.825Z,78.61
2023-02-09T09:13:16.961Z,78.51
2023-02-09T09:14:16.802Z,78.40
2023-02-09T09:15:16.829Z,78.19
2023-02-09T09:16:16.824Z,77.84
2023-02-09T09:17:16.792Z,77.73
2023-02-09T09:18:16.765Z,77.84
2023-02-09T09:19:16.770Z,77.73
2023-02-09T09:20:16.747Z,78.05
2023-02-09T09:21:16.761Z,78.05
2023-02-09T09:22:16.722Z,78.16
2023-02-09T09:23:16.719Z,78.36
2023-02-09T09:24:16.713Z,78.47
2023-02-09T09:25:16.720Z,78.16
2023-02-09T09:26:16.691Z,77.94
2023-02-09T09:27:16.701Z,77.94
2023-02-09T09:28:16.800Z,77.91
2023-02-09T09:29:16.676Z,77.48
2023-02-09T09:30:16.650Z,77.59
2023-02-09T09:31:16.767Z,77.48
2023-02-09T09:32:16.735Z,77.48
2023-02-09T09:33:16.702Z,77.28
2023-02-09T09:34:16.628Z,77.06
2023-02-09T09:35:16.609Z,76.61
2023-02-09T09:36:16.593Z,76.19
2023-02-09T09:37:16.588Z,76.29
2023-02-09T09:38:16.577Z,76.08
2023-02-09T09:39:16.599Z,75.87
2023-02-09T09:40:16.557Z,75.45
2023-02-09T09:41:16.547Z,75.13
2023-02-09T09:42:16.536Z,75.34
2023-02-09T09:43:16.536Z,75.34
2023-02-09T09:44:16.518Z,74.89
2023-02-09T09:45:16.539Z,74.57
2023-02-09T09:46:16.566Z,74.47
2023-02-09T09:47:16.491Z,74.26
2023-02-09T09:48:16.477Z,73.94
2023-02-09T09:49:16.534Z,73.94
2023-02-09T09:50:16.465Z,74.05
2023-02-09T09:51:16.474Z,74.05
2023-02-09T09:52:16.471Z,73.83
2023-02-09T09:53:16.434Z,74.15
2023-02-09T09:54:16.414Z,74.22
2023-02-09T09:55:16.421Z,73.91
2023-02-09T09:56:16.398Z,73.49
2023-02-09T09:57:16.421Z,73.70
2023-02-09T09:58:16.412Z,73.70
2023-02-09T09:59:16.378Z,73.14
2023-02-09T10:00:16.357Z,72.61
2023-02-09T10:01:16.414Z,72.19
2023-02-09T10:02:16.416Z,71.98
2023-02-09T10:03:16.349Z,72.16
2023-02-09T10:04:16.411Z,72.58
2023-02-09T10:05:16.323Z,71.42
2023-02-09T10:06:16.360Z,69.29
2023-02-09T10:07:18.465Z,68.87
2023-02-09T10:08:16.301Z,67.68
2023-02-09T10:09:16.269Z,66.84
2023-02-09T10:10:16.260Z,65.97
2023-02-09T10:11:16.246Z,66.49
2023-02-09T10:12:16.237Z,65.62
2023-02-09T10:13:16.259Z,65.20
2023-02-09T10:14:16.216Z,65.20
2023-02-09T10:15:16.216Z,64.02
2023-02-09T10:16:16.191Z,63.60
2023-02-09T10:17:16.189Z,63.81
2023-02-09T10:18:16.178Z,64.65
2023-02-09T10:19:16.206Z,64.54
2023-02-09T10:20:16.152Z,64.02
2023-02-09T10:21:16.165Z,63.91
2023-02-09T10:22:16.139Z,63.99
2023-02-09T10:23:16.130Z,63.67
2023-02-09T10:24:16.156Z,63.15
2023-02-09T10:25:16.106Z,62.60
2023-02-09T10:26:16.101Z,62.07
2023-02-09T10:27:16.102Z,62.07
2023-02-09T10:28:16.144Z,62.07
2023-02-09T10:29:16.071Z,62.38
2023-02-09T10:30:16.084Z,61.76
2023-02-09T10:31:16.185Z,61.63
2023-02-09T10:32:16.036Z,61.94
2023-02-09T10:33:16.036Z,61.83
2023-02-09T10:34:16.020Z,61.63
2023-02-09T10:35:16.006Z,61.63
2023-02-09T10:36:16.008Z,61.52
2023-02-09T10:37:15.988Z,61.73
2023-02-09T10:38:15.974Z,62.15
2023-02-09T10:39:15.960Z,61.94
2023-02-09T10:40:15.961Z,61.39
2023-02-09T10:41:15.982Z,61.60
2023-02-09T10:42:15.930Z,61.70
2023-02-09T10:43:15.919Z,62.12
2023-02-09T10:44:15.918Z,62.12
2023-02-09T10:45:15.902Z,61.49
2023-02-09T10:46:15.941Z,60.83
2023-02-09T10:47:15.904Z,59.69
2023-02-09T10:48:15.871Z,60.52
2023-02-09T10:49:15.866Z,60.31
2023-02-09T10:50:15.849Z,59.58
2023-02-09T10:51:15.853Z,59.47
2023-02-09T10:52:15.899Z,59.89
2023-02-09T10:53:15.852Z,59.69
2023-02-09T10:54:15.823Z,59.27
2023-02-09T10:55:15.801Z,59.06
2023-02-09T10:56:15.796Z,59.13
2023-02-09T10:57:15.782Z,59.13
2023-02-09T10:58:15.804Z,58.92
2023-02-09T10:59:15.767Z,59.24
2023-02-09T11:00:15.757Z,59.55
2023-02-09T11:01:15.806Z,59.34
2023-02-09T11:02:15.729Z,58.82
2023-02-09T11:03:15.728Z,58.61
2023-02-09T11:04:15.760Z,58.09
2023-02-09T11:05:15.708Z,58.09
2023-02-09T11:06:15.696Z,57.67
2023-02-09T11:07:15.695Z,58.09
2023-02-09T11:08:15.691Z,58.37
2023-02-09T11:09:15.714Z,58.48
2023-02-09T11:10:15.655Z,57.95
2023-02-09T11:11:15.659Z,57.22
2023-02-09T11:12:15.644Z,57.43
2023-02-09T11:13:15.628Z,57.64
2023-02-09T11:14:15.625Z,57.95
2023-02-09T11:15:15.640Z,58.48
2023-02-09T11:16:15.616Z,58.14
2023-02-09T11:17:15.589Z,57.40
2023-02-09T11:18:15.584Z,56.99
2023-02-09T11:19:15.570Z,56.78
2023-02-09T11:20:15.568Z,56.57
2023-02-09T11:21:15.563Z,56.78
2023-02-09T11:22:15.545Z,56.05
2023-02-09T11:23:15.520Z,56.46
2023-02-09T11:24:15.517Z,56.78
2023-02-09T11:25:15.506Z,56.57
2023-02-09T11:26:15.531Z,57.20
2023-02-09T11:27:15.484Z,56.78
2023-02-09T11:28:15.529Z,56.57
2023-02-09T11:29:15.461Z,57.09
2023-02-09T11:30:15.474Z,56.96
2023-02-09T11:31:15.578Z,56.86
2023-02-09T11:32:15.476Z,56.86
2023-02-09T11:33:15.422Z,57.17
2023-02-09T11:34:15.430Z,57.70
2023-02-09T11:35:15.417Z,56.54
2023-02-09T11:36:15.396Z,56.36
2023-02-09T11:37:15.383Z,57.09
2023-02-09T11:38:15.412Z,57.93
2023-02-09T11:39:15.361Z,57.82
2023-02-09T11:40:15.398Z,57.51
2023-02-09T11:41:15.343Z,57.38
2023-02-09T11:42:15.344Z,57.17
2023-02-09T11:43:15.322Z,56.75
2023-02-09T11:44:15.334Z,56.86
2023-02-09T11:45:15.298Z,57.07
2023-02-09T11:46:15.385Z,56.54
2023-02-09T11:47:15.290Z,56.10
2023-02-09T11:48:15.273Z,56.73
2023-02-09T11:49:15.284Z,56.83
2023-02-09T11:50:15.318Z,56.52
2023-02-09T11:51:15.262Z,56.62
2023-02-09T11:52:15.243Z,56.73
2023-02-09T11:53:15.220Z,56.39
2023-02-09T11:54:15.219Z,55.55
2023-02-09T11:55:15.216Z,55.34
2023-02-09T11:56:15.188Z,55.03
2023-02-09T11:57:15.175Z,55.24
2023-02-09T11:58:15.171Z,55.87
2023-02-09T11:59:15.161Z,55.45
2023-02-09T12:00:15.383Z,55.97
2023-02-09T12:01:16.519Z,55.55
2023-02-09T12:02:15.143Z,55.76
2023-02-09T12:03:15.181Z,55.24
2023-02-09T12:04:15.109Z,55.45
2023-02-09T12:05:15.097Z,55.13
2023-02-09T12:06:15.144Z,55.13
2023-02-09T12:07:15.080Z,55.24
2023-02-09T12:08:15.071Z,55.13
2023-02-09T12:09:15.057Z,55.66
2023-02-09T12:10:15.088Z,55.34
2023-02-09T12:11:15.036Z,55.45
2023-02-09T12:12:15.058Z,55.74
2023-02-09T12:13:15.016Z,56.05
2023-02-09T12:14:15.015Z,56.46
2023-02-09T12:15:14.998Z,55.74
2023-02-09T12:16:15.039Z,56.15
2023-02-09T12:17:14.984Z,56.05
2023-02-09T12:18:15.377Z,55.74
2023-02-09T12:19:14.955Z,55.60
2023-02-09T12:20:15.069Z,55.50
2023-02-09T12:21:14.944Z,55.29
2023-02-09T12:22:14.935Z,55.40
2023-02-09T12:23:14.917Z,55.19
2023-02-09T12:24:14.943Z,55.40
2023-02-09T12:25:14.895Z,55.29
2023-02-09T12:26:14.894Z,54.88
2023-02-09T12:27:14.911Z,55.29
2023-02-09T12:28:14.918Z,55.37
2023-02-09T12:29:14.859Z,54.96
2023-02-09T12:30:14.881Z,54.96
2023-02-09T12:31:14.937Z,54.64
2023-02-09T12:32:14.917Z,54.96
2023-02-09T12:33:14.821Z,54.75
2023-02-09T12:34:14.822Z,54.04
2023-02-09T12:35:14.795Z,54.04
2023-02-09T12:36:14.821Z,54.27
2023-02-09T12:37:14.779Z,54.69
2023-02-09T12:38:14.773Z,54.80
2023-02-09T12:39:14.761Z,54.51
2023-02-09T12:40:14.792Z,54.82
2023-02-09T12:41:14.734Z,55.84
2023-02-09T12:42:14.747Z,56.78
2023-02-09T12:43:14.714Z,55.42
2023-02-09T12:44:14.710Z,55.00
2023-02-09T12:45:14.692Z,55.32
2023-02-09T12:46:14.775Z,55.53
2023-02-09T12:47:14.705Z,55.63
2023-02-09T12:48:14.682Z,55.94
2023-02-09T12:49:14.665Z,56.05
2023-02-09T12:50:14.651Z,55.74
2023-02-09T12:51:14.640Z,55.92
2023-02-09T12:52:14.629Z,56.02